Time;durP1;ratioP1;P1;durP2;ratioP2;P2;SDS_P1;SDS_P2;PMS_P1;PMS_P2;Temp;Humidity;BMP_temperature;BMP_pressure;BME280_temperature;BME280_humidity;BME280_pressure;Samples;Min_cycle;Max_cycle;Signal;HPM_P1;HPM_P2
2022/02/12 00:01:46;;;;;;;8.40;1.83;;;;;;;4.60;66.73;101650.50;4989177;28;20495;-76
2022/02/12 00:04:12;;;;;;;3.58;2.25;;;;;;;4.58;66.52;101664.25;4960886;28;20045;-71
2022/02/12 00:06:37;;;;;;;6.10;2.00;;;;;;;4.56;66.95;101660.91;4986488;28;20030;-73
2022/02/12 00:09:03;;;;;;;1.98;1.80;;;;;;;4.53;66.56;101653.19;4978012;28;20027;-70
2022/02/12 00:11:28;;;;;;;3.13;1.70;;;;;;;4.52;66.73;101651.50;4965036;28;20363;-71
2022/02/12 00:13:53;;;;;;;2.80;1.50;;;;;;;4.51;66.75;101647.09;4972400;28;20430;-72
2022/02/12 00:16:19;;;;;;;1.65;1.55;;;;;;;4.48;66.76;101650.19;4993158;28;20412;-72
2022/02/12 00:18:44;;;;;;;3.55;1.55;;;;;;;4.44;67.39;101635.38;4995811;28;20022;-69
2022/02/12 00:21:10;;;;;;;1.70;1.60;;;;;;;4.45;67.34;101639.75;4981590;28;20142;-70
2022/02/12 00:23:35;;;;;;;3.30;1.05;;;;;;;4.46;67.56;101633.31;4963793;28;20058;-70
2022/02/12 00:26:01;;;;;;;1.27;1.17;;;;;;;4.49;67.39;101622.09;4974987;28;20034;-70
2022/02/12 00:28:26;;;;;;;4.40;1.50;;;;;;;4.52;67.59;101619.00;4968942;28;20414;-71
2022/02/12 00:30:52;;;;;;;4.32;1.70;;;;;;;4.52;67.49;101624.41;4967780;28;20050;-71
2022/02/12 00:33:18;;;;;;;4.00;1.83;;;;;;;4.49;66.82;101616.69;4984357;28;20034;-72
2022/02/12 00:35:45;;;;;;;4.22;1.55;;;;;;;4.51;67.30;101625.44;4986973;28;20038;-70
2022/02/12 00:38:10;;;;;;;3.90;1.35;;;;;;;4.48;67.04;101620.41;4988806;28;20049;-71
2022/02/12 00:40:36;;;;;;;7.28;1.20;;;;;;;4.47;66.95;101614.16;4989727;28;20058;-71
2022/02/12 00:43:03;;;;;;;1.83;1.42;;;;;;;4.48;66.89;101609.56;4964730;28;20035;-70
2022/02/12 00:45:28;;;;;;;6.53;1.60;;;;;;;4.46;67.12;101606.25;4986173;28;20027;-70
2022/02/12 00:47:54;;;;;;;3.38;1.35;;;;;;;4.42;67.15;101596.81;4987658;28;20092;-70
2022/02/12 00:50:19;;;;;;;7.57;1.35;;;;;;;4.37;67.63;101603.66;4980347;28;20022;-69
2022/02/12 00:52:45;;;;;;;2.45;1.60;;;;;;;4.32;67.81;101589.88;4995982;28;20504;-71
2022/02/12 00:55:10;;;;;;;1.05;0.93;;;;;;;4.32;67.80;101592.59;4990788;28;20069;-70
2022/02/12 00:57:36;;;;;;;0.75;0.65;;;;;;;4.31;67.60;101582.78;4984968;28;20030;-71
2022/02/12 01:00:04;;;;;;;0.60;0.60;;;;;;;4.31;67.58;101587.38;4977579;28;20089;-70
2022/02/12 01:02:29;;;;;;;3.75;1.05;;;;;;;4.29;67.51;101576.75;4963948;28;20585;-70
2022/02/12 01:04:55;;;;;;;6.25;0.70;;;;;;;4.28;67.26;101566.94;4984331;28;20027;-70
2022/02/12 01:07:20;;;;;;;3.03;1.05;;;;;;;4.24;67.62;101565.66;4974994;28;20031;-70
2022/02/12 01:09:46;;;;;;;2.83;1.45;;;;;;;4.25;67.80;101561.91;4978373;28;20117;-70
2022/02/12 01:12:11;;;;;;;1.48;0.50;;;;;;;4.21;67.48;101555.22;4990105;28;20038;-70
2022/02/12 01:14:37;;;;;;;2.58;0.80;;;;;;;4.23;68.18;101553.13;4984631;28;20026;-70
2022/02/12 01:17:03;;;;;;;0.85;0.77;;;;;;;4.21;67.68;101544.38;4973687;28;20388;-71
2022/02/12 01:19:28;;;;;;;1.25;0.60;;;;;;;4.22;68.25;101546.06;4987071;28;20125;-70
2022/02/12 01:21:54;;;;;;;1.63;0.60;;;;;;;4.23;68.32;101547.72;4977606;28;20048;-70
2022/02/12 01:24:20;;;;;;;2.35;0.70;;;;;;;4.22;68.02;101540.66;4989920;28;20114;-70
2022/02/12 01:26:46;;;;;;;0.77;0.60;;;;;;;4.24;67.79;101538.56;4969348;28;20489;-70
2022/02/12 01:29:11;;;;;;;0.85;0.65;;;;;;;4.27;67.70;101537.34;4996293;28;20113;-70
2022/02/12 01:31:37;;;;;;;0.50;0.50;;;;;;;4.26;68.42;101528.38;4956007;28;20035;-71
2022/02/12 01:34:02;;;;;;;7.45;0.88;;;;;;;4.26;68.16;101539.19;4983308;28;20037;-70
2022/02/12 01:36:27;;;;;;;2.72;1.00;;;;;;;4.27;68.47;101534.63;4981820;28;20039;-70
2022/02/12 01:38:53;;;;;;;2.65;1.00;;;;;;;4.29;68.10;101525.28;4985545;28;20026;-69
2022/02/12 01:41:18;;;;;;;4.10;1.02;;;;;;;4.31;68.27;101515.09;4993931;28;20041;-70
2022/02/12 01:43:44;;;;;;;3.15;0.93;;;;;;;4.35;68.41;101518.22;4964980;28;20575;-69
2022/02/12 01:46:10;;;;;;;3.85;1.30;;;;;;;4.35;68.57;101513.66;4980133;28;20053;-70
2022/02/12 01:48:37;;;;;;;3.20;1.08;;;;;;;4.35;68.45;101507.38;4967201;28;20031;-70
2022/02/12 01:51:02;;;;;;;1.58;0.85;;;;;;;4.37;68.39;101506.16;4966938;28;20022;-70
2022/02/12 01:53:28;;;;;;;1.75;1.10;;;;;;;4.37;69.15;101503.44;4997095;28;20161;-69
2022/02/12 01:55:56;;;;;;;2.10;0.68;;;;;;;4.37;68.78;101506.16;4989618;28;20035;-70
2022/02/12 01:58:22;;;;;;;2.10;0.80;;;;;;;4.39;68.97;101505.13;4995082;28;20053;-70
2022/02/12 02:00:48;;;;;;;3.90;0.80;;;;;;;4.36;68.92;101499.06;4976673;28;20106;-70
2022/02/12 02:03:14;;;;;;;0.82;0.82;;;;;;;4.39;68.74;101497.00;4993879;28;20072;-70
2022/02/12 02:05:39;;;;;;;2.22;0.85;;;;;;;4.40;69.08;101488.69;4978502;28;20049;-70
2022/02/12 02:08:05;;;;;;;2.05;0.90;;;;;;;4.43;69.04;101495.59;4954453;28;20022;-70
2022/02/12 02:10:31;;;;;;;1.35;1.05;;;;;;;4.44;69.48;101491.81;4965049;28;20030;-71
2022/02/12 02:12:57;;;;;;;1.23;0.88;;;;;;;4.46;68.85;101477.03;4990560;28;20532;-70
2022/02/12 02:15:22;;;;;;;1.77;1.00;;;;;;;4.49;68.93;101481.22;5001714;28;20029;-70
2022/02/12 02:17:48;;;;;;;0.85;0.50;;;;;;;4.50;68.56;101483.75;4987460;28;20114;-70
2022/02/12 02:20:13;;;;;;;0.40;0.40;;;;;;;4.51;69.00;101484.56;4964905;28;20034;-70
2022/02/12 02:22:56;;;;;;;0.50;0.40;;;;;;;4.51;69.09;101473.72;4969753;28;20046;-69
2022/02/12 02:25:22;;;;;;;1.08;0.32;;;;;;;4.50;68.71;101483.75;4985938;28;20085;-69
2022/02/12 02:27:48;;;;;;;0.77;0.70;;;;;;;4.47;68.88;101473.31;4978690;28;20119;-70
2022/02/12 02:30:19;;;;;;;1.20;0.45;;;;;;;4.45;68.76;101466.41;4983733;28;20030;-70
2022/02/12 02:32:45;;;;;;;2.33;0.80;;;;;;;4.39;68.69;101459.09;4986638;28;20023;-69
2022/02/12 02:35:13;;;;;;;3.25;0.95;;;;;;;4.36;69.15;101463.03;4980732;28;20023;-70
2022/02/12 02:37:39;;;;;;;2.45;0.98;;;;;;;4.35;69.66;101459.50;4983775;28;20066;-70
2022/02/12 02:40:12;;;;;;;2.50;1.08;;;;;;;4.36;69.78;101458.44;4992311;28;20030;-70
2022/02/12 02:42:46;;;;;;;0.80;0.68;;;;;;;4.40;69.34;101455.34;4979048;28;20034;-70
2022/02/12 02:45:13;;;;;;;4.88;0.95;;;;;;;4.42;69.37;101453.28;4977293;28;20120;-71
2022/02/12 02:47:42;;;;;;;1.27;0.80;;;;;;;4.44;69.54;101452.03;4989257;28;20162;-70
2022/02/12 02:55:59;;;;;;;1.13;0.88;;;;;;;4.41;69.64;101446.16;4988464;28;20064;-71
2022/02/12 02:58:36;;;;;;;3.63;0.77;;;;;;;4.43;69.21;101444.13;4974526;28;20104;-71
2022/02/12 03:01:04;;;;;;;0.70;0.68;;;;;;;4.43;69.10;101438.69;4992714;28;20027;-72
2022/02/12 03:03:30;;;;;;;0.93;0.75;;;;;;;4.43;69.33;101438.69;4996667;28;20022;-71
2022/02/12 03:05:57;;;;;;;1.65;0.60;;;;;;;4.47;68.84;101429.97;4965062;28;20042;-71
2022/02/12 03:08:23;;;;;;;3.65;1.00;;;;;;;4.47;69.08;101429.16;4960389;28;20027;-71
2022/02/12 03:10:48;;;;;;;5.25;0.82;;;;;;;4.40;69.14;101410.13;4977889;28;20014;-70
2022/02/12 03:13:14;;;;;;;1.40;0.50;;;;;;;4.41;69.43;101414.53;4985271;28;20038;-70
2022/02/12 03:15:40;;;;;;;3.50;0.55;;;;;;;4.41;69.18;101402.84;4975152;28;20050;-71
2022/02/12 03:18:06;;;;;;;1.15;0.93;;;;;;;4.40;69.80;101401.19;4987401;28;20152;-70
2022/02/12 03:20:32;;;;;;;4.03;0.80;;;;;;;4.39;69.79;101394.09;4989604;28;20075;-70
2022/02/12 03:22:58;;;;;;;2.53;0.65;;;;;;;4.42;69.92;101390.97;4953222;28;20026;-70
2022/02/12 03:25:24;;;;;;;6.65;0.60;;;;;;;4.45;69.86;101385.16;4972390;28;20034;-70
2022/02/12 03:27:54;;;;;;;4.28;0.57;;;;;;;4.44;70.53;101372.63;4987993;28;20034;-71
2022/02/12 03:30:20;;;;;;;5.80;0.77;;;;;;;4.48;70.41;101363.94;4968642;28;20038;-71
2022/02/12 03:32:45;;;;;;;0.60;0.60;;;;;;;4.52;70.64;101356.22;4980463;28;20022;-71
2022/02/12 03:35:11;;;;;;;2.60;0.52;;;;;;;4.52;69.95;101351.63;4959332;28;20030;-71
2022/02/12 03:37:37;;;;;;;5.10;0.47;;;;;;;4.51;70.73;101349.13;4989719;28;20361;-71
2022/02/12 03:40:05;;;;;;;2.67;0.80;;;;;;;4.49;70.84;101348.50;4996867;28;20030;-71
2022/02/12 03:42:31;;;;;;;2.50;0.60;;;;;;;4.49;70.62;101345.78;4977766;28;20507;-70
2022/02/12 03:44:56;;;;;;;3.97;0.90;;;;;;;4.48;71.23;101344.13;4996585;28;20027;-70
2022/02/12 03:47:21;;;;;;;1.23;0.73;;;;;;;4.56;70.95;101343.94;4991067;28;20030;-71
2022/02/12 03:49:47;;;;;;;3.85;0.95;;;;;;;4.59;70.71;101345.41;4990329;28;20038;-71
2022/02/12 03:52:12;;;;;;;2.83;0.57;;;;;;;4.65;70.75;101337.28;4974837;28;20030;-71
2022/02/12 03:54:38;;;;;;;0.93;0.63;;;;;;;4.66;70.74;101328.13;4975921;28;20396;-71
2022/02/12 03:57:03;;;;;;;1.35;0.60;;;;;;;4.61;70.79;101327.91;4974983;28;20090;-70
2022/02/12 03:59:29;;;;;;;3.90;0.98;;;;;;;4.58;71.58;101320.19;4979229;28;20540;-71
2022/02/12 04:01:54;;;;;;;9.23;1.40;;;;;;;4.56;71.56;101314.16;5010966;28;20026;-71
2022/02/12 04:04:20;;;;;;;3.70;0.60;;;;;;;4.56;71.62;101311.44;4982304;28;20035;-71
2022/02/12 04:06:48;;;;;;;7.03;1.15;;;;;;;4.49;72.12;101302.47;4984805;28;20088;-71
2022/02/12 04:09:14;;;;;;;4.25;1.33;;;;;;;4.48;72.17;101306.19;4974309;28;20080;-71
2022/02/12 04:11:39;;;;;;;2.30;0.60;;;;;;;4.47;72.17;101307.25;4946546;28;20038;-71
2022/02/12 04:14:05;;;;;;;2.92;0.90;;;;;;;4.53;72.44;101309.16;4956104;28;20046;-71
2022/02/12 04:16:31;;;;;;;1.20;0.55;;;;;;;4.57;72.65;101296.88;4984842;28;20033;-70
2022/02/12 04:18:56;;;;;;;6.97;0.85;;;;;;;4.64;72.95;101294.97;4959794;28;20029;-70
2022/02/12 04:21:22;;;;;;;5.93;1.95;;;;;;;4.72;72.48;101286.66;4977335;28;20074;-70
2022/02/12 04:23:49;;;;;;;8.30;1.48;;;;;;;4.77;71.84;101277.91;4981469;28;20026;-71
2022/02/12 04:26:15;;;;;;;1.10;0.40;;;;;;;4.81;72.62;101281.88;4981296;28;20101;-70
2022/02/12 04:28:40;;;;;;;2.33;0.63;;;;;;;4.82;71.98;101264.59;4953400;28;20035;-71
2022/02/12 04:31:06;;;;;;;3.35;0.80;;;;;;;4.86;72.58;101271.28;4977848;28;20042;-70
2022/02/12 04:33:32;;;;;;;6.38;1.10;;;;;;;4.88;72.66;101263.75;4990730;28;20341;-71
2022/02/12 04:36:00;;;;;;;0.45;0.32;;;;;;;4.94;72.82;101255.84;4974228;28;20366;-71
2022/02/12 04:38:25;;;;;;;3.53;1.10;;;;;;;4.96;73.01;101254.56;4976250;28;20023;-71
2022/02/12 04:40:51;;;;;;;6.60;1.33;;;;;;;5.00;73.45;101247.69;4952124;28;20037;-71
2022/02/12 04:43:16;;;;;;;7.28;1.17;;;;;;;5.01;73.03;101243.13;4992211;28;20434;-70
2022/02/12 04:45:42;;;;;;;3.22;0.90;;;;;;;4.99;73.00;101243.31;4962074;28;20030;-69
2022/02/12 04:48:07;;;;;;;2.10;1.15;;;;;;;5.02;73.53;101242.91;4994912;28;20034;-71
2022/02/12 04:50:33;;;;;;;3.33;1.20;;;;;;;5.06;73.41;101238.72;4996037;28;20510;-71
2022/02/12 04:52:58;;;;;;;3.38;1.23;;;;;;;5.09;73.57;101237.47;4993016;28;20066;-70
2022/02/12 04:55:24;;;;;;;5.40;1.30;;;;;;;5.09;73.65;101223.09;4986972;28;20061;-70
2022/02/12 04:57:50;;;;;;;8.10;0.93;;;;;;;5.12;73.29;101228.91;4968528;28;20457;-70
2022/02/12 05:00:16;;;;;;;2.60;1.00;;;;;;;5.15;73.99;101219.53;4965233;28;20035;-71
2022/02/12 05:02:42;;;;;;;1.80;1.00;;;;;;;5.17;73.32;101231.00;4980727;28;20026;-70
2022/02/12 05:05:08;;;;;;;4.50;1.15;;;;;;;5.14;74.01;101217.84;4962641;28;20444;-70
2022/02/12 05:07:34;;;;;;;5.07;1.20;;;;;;;5.17;74.01;101214.72;4953235;28;20390;-71
2022/02/12 05:09:59;;;;;;;3.28;1.40;;;;;;;5.17;73.70;101207.44;4968976;28;20041;-71
2022/02/12 05:12:25;;;;;;;2.55;1.65;;;;;;;5.19;73.33;101218.06;4980458;28;20023;-72
2022/02/12 05:14:51;;;;;;;5.63;1.20;;;;;;;5.21;73.55;101221.41;4992479;28;20491;-71
2022/02/12 05:17:16;;;;;;;5.10;1.63;;;;;;;5.21;73.95;101214.13;4981643;28;20034;-72
2022/02/12 05:19:42;;;;;;;8.00;1.30;;;;;;;5.22;73.77;101214.94;4964597;28;20030;-71
2022/02/12 05:22:08;;;;;;;3.15;1.73;;;;;;;5.22;73.48;101209.53;4993279;28;20069;-70
2022/02/12 05:24:33;;;;;;;3.17;1.17;;;;;;;5.22;73.78;101206.81;5022949;28;20034;-71
2022/02/12 05:26:59;;;;;;;9.73;1.75;;;;;;;5.22;74.12;101204.09;5021982;28;20045;-71
2022/02/12 05:29:24;;;;;;;11.52;2.47;;;;;;;5.21;73.99;101205.13;4986291;28;20049;-70
2022/02/12 05:31:50;;;;;;;2.97;1.80;;;;;;;5.22;73.77;101198.66;5008821;28;20026;-70
2022/02/12 05:34:17;;;;;;;10.45;1.83;;;;;;;5.23;74.54;101194.94;5001429;28;20033;-71
2022/02/12 05:36:43;;;;;;;6.20;1.05;;;;;;;5.23;74.14;101200.34;5016039;28;20064;-70
2022/02/12 05:39:09;;;;;;;6.13;1.73;;;;;;;5.24;73.51;101191.16;5010005;28;20022;-70
2022/02/12 05:41:35;;;;;;;13.02;1.40;;;;;;;5.28;73.42;101192.41;5015703;28;20039;-70
2022/02/12 05:44:01;;;;;;;3.05;1.40;;;;;;;5.31;73.86;101191.97;5004839;28;20076;-71
2022/02/12 05:46:27;;;;;;;4.80;1.63;;;;;;;5.32;73.54;101190.94;5002200;28;20034;-70
2022/02/12 05:48:52;;;;;;;3.17;1.70;;;;;;;5.35;73.73;101198.63;4995625;28;20029;-71
2022/02/12 05:51:18;;;;;;;3.88;1.45;;;;;;;5.37;73.10;101185.72;5006158;28;20061;-71
2022/02/12 05:53:44;;;;;;;2.95;1.48;;;;;;;5.41;72.54;101181.50;5015708;28;20026;-71
2022/02/12 05:56:10;;;;;;;4.40;1.52;;;;;;;5.45;72.58;101187.34;5011391;28;20030;-70
2022/02/12 05:58:36;;;;;;;2.83;1.38;;;;;;;5.50;72.44;101186.72;5010980;28;20026;-71
2022/02/12 06:01:01;;;;;;;7.70;1.20;;;;;;;5.55;71.99;101189.63;5013672;28;20042;-71
2022/02/12 06:03:27;;;;;;;4.80;1.30;;;;;;;5.57;72.27;101195.66;5013140;28;20116;-70
2022/02/12 06:05:52;;;;;;;1.55;1.30;;;;;;;5.55;72.24;101184.19;4989227;28;20026;-71
2022/02/12 06:08:18;;;;;;;3.28;1.25;;;;;;;5.52;72.21;101179.19;4992831;28;20026;-71
2022/02/12 06:11:01;;;;;;;3.20;1.17;;;;;;;5.47;71.91;101176.28;5000279;28;20089;-72
2022/02/12 06:13:27;;;;;;;3.80;1.00;;;;;;;5.39;71.87;101178.19;5007122;28;20038;-72
2022/02/12 06:15:53;;;;;;;3.28;1.70;;;;;;;5.37;71.52;101172.16;5011559;28;20117;-70
2022/02/12 06:18:18;;;;;;;5.18;1.48;;;;;;;5.34;71.28;101175.25;5005572;28;20033;-71
2022/02/12 06:20:44;;;;;;;3.45;1.02;;;;;;;5.30;71.67;101167.78;4998805;28;20133;-71
2022/02/12 06:23:09;;;;;;;6.57;1.35;;;;;;;5.27;71.22;101165.50;5010756;28;20036;-71
2022/02/12 06:25:34;;;;;;;2.13;1.30;;;;;;;5.30;71.31;101162.34;5005515;28;20026;-71
2022/02/12 06:28:00;;;;;;;1.52;1.42;;;;;;;5.32;71.87;101155.66;5010196;28;20034;-71
2022/02/12 06:30:26;;;;;;;5.22;1.55;;;;;;;5.33;71.47;101151.06;4992645;28;20104;-71
2022/02/12 06:32:52;;;;;;;3.63;1.10;;;;;;;5.34;70.97;101156.28;5012708;28;20126;-72
2022/02/12 06:35:18;;;;;;;4.18;1.40;;;;;;;5.38;70.69;101143.97;4991959;28;20084;-71
2022/02/12 06:37:44;;;;;;;10.75;1.20;;;;;;;5.42;70.27;101139.78;5008004;28;20056;-71
2022/02/12 06:40:10;;;;;;;10.73;1.73;;;;;;;5.50;71.26;101129.75;4997955;28;20123;-71
2022/02/12 06:42:36;;;;;;;1.50;0.93;;;;;;;5.54;70.15;101126.38;4997606;28;20045;-72
2022/02/12 06:45:02;;;;;;;7.28;1.58;;;;;;;5.55;69.57;101119.09;4985859;28;20038;-71
2022/02/12 06:47:29;;;;;;;8.50;2.08;;;;;;;5.49;69.47;101117.22;5008978;28;20455;-72
2022/02/12 06:49:55;;;;;;;3.63;1.30;;;;;;;5.47;69.76;101117.44;5001564;28;20034;-72
2022/02/12 06:52:20;;;;;;;3.17;1.45;;;;;;;5.42;70.31;101109.94;4960160;28;20026;-71
2022/02/12 06:54:46;;;;;;;6.93;1.77;;;;;;;5.40;69.51;101114.75;5010526;28;20026;-71
2022/02/12 06:57:11;;;;;;;6.13;1.55;;;;;;;5.40;69.42;101095.78;4993661;28;20491;-71
2022/02/12 06:59:38;;;;;;;8.93;2.80;;;;;;;5.47;70.25;101097.63;4979627;28;20052;-71
2022/02/12 07:02:04;;;;;;;3.63;1.35;;;;;;;5.48;69.85;101088.44;5009829;28;20379;-71
2022/02/12 07:04:30;;;;;;;15.00;1.38;;;;;;;5.48;69.99;101088.44;5008726;28;20036;-70
2022/02/12 07:06:56;;;;;;;5.28;1.42;;;;;;;5.41;69.63;101099.31;5014296;28;20519;-70
2022/02/12 07:09:21;;;;;;;4.82;1.27;;;;;;;5.40;70.26;101103.91;5005175;28;20034;-69
2022/02/12 07:11:47;;;;;;;3.97;1.60;;;;;;;5.41;69.14;101097.41;5016226;28;20022;-69
2022/02/12 07:14:12;;;;;;;5.68;1.90;;;;;;;5.42;69.80;101098.28;4985201;28;20673;-70
2022/02/12 07:16:38;;;;;;;7.53;1.67;;;;;;;5.44;69.48;101087.19;4986680;28;20025;-69
2022/02/12 07:19:06;;;;;;;1.30;1.20;;;;;;;5.52;69.38;101086.94;4990668;28;20084;-70
2022/02/12 07:21:33;;;;;;;6.57;1.70;;;;;;;5.56;69.29;101078.16;5008572;28;20104;-71
2022/02/12 07:23:58;;;;;;;7.43;1.20;;;;;;;5.61;68.68;101085.66;5008569;28;20050;-70
2022/02/12 07:26:24;;;;;;;2.05;1.25;;;;;;;5.64;68.61;101087.09;5011572;28;20056;-73
2022/02/12 07:28:49;;;;;;;4.43;1.13;;;;;;;5.66;68.91;101085.81;4986724;28;20037;-75
2022/02/12 07:31:16;;;;;;;3.30;1.05;;;;;;;5.70;69.31;101087.06;5003543;28;20038;-74
2022/02/12 07:33:42;;;;;;;9.93;1.60;;;;;;;5.70;68.56;101084.34;5006847;28;20162;-74
2022/02/12 07:36:08;;;;;;;7.60;1.80;;;;;;;5.75;68.38;101089.97;5008296;28;20523;-75
2022/02/12 07:38:37;;;;;;;7.00;1.05;;;;;;;5.71;69.02;101083.31;4986899;28;20061;-73
2022/02/12 07:41:02;;;;;;;6.28;1.60;;;;;;;5.79;68.40;101089.53;4993835;28;20554;-71
2022/02/12 07:43:28;;;;;;;2.13;1.05;;;;;;;5.78;68.54;101083.25;5004285;28;20026;-71
2022/02/12 07:45:56;;;;;;;9.10;1.73;;;;;;;5.83;67.78;101085.34;5010762;28;20036;-70
2022/02/12 07:48:23;;;;;;;6.82;2.08;;;;;;;5.83;68.29;101086.16;5000705;28;20364;-70
2022/02/12 07:50:49;;;;;;;5.88;1.02;;;;;;;5.85;68.03;101075.91;4982495;28;20030;-70
2022/02/12 07:53:14;;;;;;;4.93;1.45;;;;;;;5.90;67.51;101069.84;4995938;28;20022;-70
2022/02/12 07:55:43;;;;;;;2.10;1.02;;;;;;;5.90;68.41;101077.97;4989628;28;20506;-73
2022/02/12 07:58:09;;;;;;;4.57;0.88;;;;;;;5.93;67.68;101080.25;5002405;28;20026;-70
2022/02/12 08:00:35;;;;;;;8.93;1.40;;;;;;;5.91;67.61;101077.75;4983171;28;20025;-70
2022/02/12 08:03:00;;;;;;;7.72;1.27;;;;;;;5.90;67.45;101083.41;4990083;28;20121;-69
2022/02/12 08:05:26;;;;;;;5.97;1.38;;;;;;;5.86;67.11;101079.47;5023864;28;20029;-70
2022/02/12 08:07:51;;;;;;;6.65;1.20;;;;;;;5.83;67.61;101079.91;5027590;28;20574;-71
2022/02/12 08:13:02;;;;;;;13.18;1.63;;;;;;;5.90;67.27;101094.25;5011031;28;20072;-71
2022/02/12 08:15:28;;;;;;;3.47;1.13;;;;;;;5.91;67.59;101093.19;4999830;28;20030;-69
2022/02/12 08:17:55;;;;;;;7.35;1.08;;;;;;;5.96;67.57;101090.66;5014436;28;20376;-70
2022/02/12 08:20:20;;;;;;;0.80;0.80;;;;;;;6.02;68.15;101089.81;5011692;28;20064;-70
2022/02/12 08:22:46;;;;;;;5.35;0.60;;;;;;;6.06;67.13;101085.63;5016413;28;20050;-70
2022/02/12 08:25:12;;;;;;;2.35;0.70;;;;;;;6.13;67.03;101090.16;4997085;28;20485;-72
2022/02/12 08:27:40;;;;;;;5.00;1.88;;;;;;;6.13;67.05;101090.97;4991810;28;20041;-76
2022/02/12 08:30:07;;;;;;;8.75;1.50;;;;;;;6.14;67.58;101091.84;5009200;28;20080;-74
2022/02/12 08:32:33;;;;;;;4.45;1.27;;;;;;;6.11;66.33;101090.38;5004013;28;20033;-74
2022/02/12 08:34:58;;;;;;;12.88;1.55;;;;;;;6.09;67.30;101090.59;5011334;28;20029;-75
2022/02/12 08:37:26;;;;;;;3.63;0.80;;;;;;;6.08;67.12;101079.97;5002662;28;20470;-76
2022/02/12 08:39:52;;;;;;;7.38;1.77;;;;;;;6.04;67.21;101065.97;5002693;28;20508;-75
2022/02/12 08:42:20;;;;;;;5.22;1.65;;;;;;;6.14;67.02;101083.69;4997216;28;20109;-75
2022/02/12 08:44:46;;;;;;;5.85;1.55;;;;;;;6.13;66.94;101084.72;4979531;28;20124;-76
2022/02/12 08:47:12;;;;;;;4.07;1.73;;;;;;;6.14;66.46;101086.41;4997632;28;20030;-75
2022/02/12 08:49:38;;;;;;;2.60;1.13;;;;;;;6.16;66.57;101078.84;5004610;28;20033;-76
2022/02/12 08:52:04;;;;;;;3.42;1.70;;;;;;;6.24;66.94;101082.13;5002267;28;20488;-76
2022/02/12 08:54:30;;;;;;;5.68;1.05;;;;;;;6.28;65.36;101077.09;5009380;28;20021;-74
2022/02/12 08:56:57;;;;;;;7.15;1.70;;;;;;;6.31;64.78;101067.66;5002479;28;20034;-77
2022/02/12 08:59:22;;;;;;;4.03;1.50;;;;;;;6.36;66.00;101055.06;4999245;28;20101;-74
2022/02/12 09:01:52;;;;;;;7.32;1.77;;;;;;;6.49;65.62;101050.59;4990532;28;20168;-73
2022/02/12 09:04:19;;;;;;;3.55;1.10;;;;;;;6.49;64.15;101048.69;4991277;28;20372;-74
2022/02/12 09:06:45;;;;;;;6.03;1.17;;;;;;;6.47;64.14;101051.63;5007781;28;20034;-74
2022/02/12 09:09:10;;;;;;;2.88;1.38;;;;;;;6.42;64.53;101040.59;5012161;28;20453;-74
2022/02/12 09:11:39;;;;;;;6.63;1.02;;;;;;;6.42;64.34;101034.34;4994075;28;20818;-75
2022/02/12 09:14:06;;;;;;;13.75;1.30;;;;;;;6.41;64.70;101033.53;5015770;28;20419;-74
2022/02/12 09:16:32;;;;;;;4.32;1.40;;;;;;;6.34;63.86;101037.31;4992738;28;20460;-73
2022/02/12 09:18:57;;;;;;;7.13;1.70;;;;;;;6.32;63.81;101029.41;4996023;28;20120;-74
2022/02/12 09:21:23;;;;;;;7.68;1.00;;;;;;;6.49;64.51;101028.84;5004970;28;20046;-73
2022/02/12 09:23:50;;;;;;;3.58;1.15;;;;;;;6.60;63.99;101030.81;5019257;28;20037;-73
2022/02/12 09:26:19;;;;;;;6.97;1.23;;;;;;;6.72;63.32;101017.34;5022232;28;20032;-74
2022/02/12 09:28:45;;;;;;;8.65;1.40;;;;;;;6.93;63.53;101013.31;5011813;28;20080;-73
2022/02/12 09:31:10;;;;;;;5.07;1.40;;;;;;;7.11;63.42;101016.03;5003868;28;20038;-74
2022/02/12 09:33:36;;;;;;;5.82;1.02;;;;;;;7.29;62.39;101028.75;5006625;28;20121;-74
2022/02/12 09:36:02;;;;;;;5.47;1.35;;;;;;;7.43;61.53;101025.88;5013395;28;20093;-74
2022/02/12 09:38:28;;;;;;;4.43;1.52;;;;;;;7.43;60.79;101023.13;5005424;28;20030;-74
2022/02/12 09:40:56;;;;;;;2.78;1.10;;;;;;;7.53;60.44;101011.72;5008490;28;20053;-73
2022/02/12 09:43:24;;;;;;;5.57;1.38;;;;;;;7.62;60.79;101018.47;5003581;28;20541;-75
2022/02/12 09:45:56;;;;;;;6.80;1.30;;;;;;;7.67;60.85;101008.56;5010733;28;20025;-73
2022/02/12 09:48:22;;;;;;;4.82;1.30;;;;;;;7.73;60.80;101012.25;5010755;28;20096;-73
2022/02/12 09:50:50;;;;;;;6.85;1.15;;;;;;;7.70;60.07;101018.16;4991963;28;20473;-73
2022/02/12 09:53:16;;;;;;;4.72;1.63;;;;;;;7.78;59.86;100998.78;5012942;28;20029;-73
2022/02/12 09:55:42;;;;;;;6.07;1.50;;;;;;;7.73;59.44;101012.25;4995744;28;20037;-73
2022/02/12 09:58:10;;;;;;;1.17;0.70;;;;;;;7.78;59.18;101004.22;4998263;28;20372;-75
2022/02/12 10:00:36;;;;;;;10.48;2.10;;;;;;;7.81;59.11;101003.75;5011898;28;20527;-73
2022/02/12 10:03:02;;;;;;;4.18;1.30;;;;;;;7.89;59.24;100999.03;5007062;28;20037;-73
2022/02/12 10:05:29;;;;;;;5.47;1.52;;;;;;;7.84;58.78;100986.94;5010108;28;20101;-73
2022/02/12 10:08:12;;;;;;;5.43;1.30;;;;;;;7.97;58.27;101001.41;4994399;28;20025;-74
2022/02/12 10:10:38;;;;;;;5.18;1.15;;;;;;;8.01;57.93;100994.41;5018304;28;20048;-73
2022/02/12 10:13:20;;;;;;;10.57;1.25;;;;;;;8.43;58.51;100994.31;4997365;28;20053;-73
2022/02/12 10:15:49;;;;;;;3.70;1.05;;;;;;;8.93;56.89;100992.16;5017009;28;20037;-73
2022/02/12 10:18:17;;;;;;;4.28;1.60;;;;;;;9.41;55.55;101004.56;5016064;28;20025;-75
2022/02/12 10:20:45;;;;;;;4.35;2.15;;;;;;;9.89;54.14;101000.50;4973760;28;20107;-74
2022/02/12 10:23:13;;;;;;;7.88;1.33;;;;;;;9.99;53.19;101008.03;5012345;28;20104;-74
2022/02/12 10:25:41;;;;;;;8.25;1.90;;;;;;;9.88;53.03;100998.00;5014958;28;20033;-73
2022/02/12 10:28:08;;;;;;;7.47;1.80;;;;;;;9.71;52.52;100992.53;4994708;28;20026;-74
2022/02/12 10:30:34;;;;;;;6.85;2.00;;;;;;;9.56;52.74;100991.22;5013884;28;20030;-74
2022/02/12 10:33:03;;;;;;;2.83;1.20;;;;;;;9.66;53.35;100993.28;4980692;28;20033;-74
2022/02/12 10:35:30;;;;;;;7.25;2.33;;;;;;;9.68;52.84;100982.94;5004956;28;20493;-75
2022/02/12 10:38:03;;;;;;;6.07;1.70;;;;;;;9.85;53.08;100991.13;4990323;28;20034;-74
2022/02/12 10:40:30;;;;;;;7.72;1.65;;;;;;;9.91;51.81;100992.88;5021856;28;20526;-73
2022/02/12 10:42:56;;;;;;;3.85;1.58;;;;;;;9.85;51.36;100979.41;5011457;28;20080;-75
2022/02/12 10:45:23;;;;;;;7.25;1.60;;;;;;;9.88;51.62;100979.72;4995269;28;20037;-75
2022/02/12 10:47:49;;;;;;;2.80;1.60;;;;;;;9.78;51.52;100966.72;4992950;28;20460;-74
2022/02/12 10:50:17;;;;;;;6.88;1.63;;;;;;;9.69;51.99;100961.91;5003403;28;20037;-75
2022/02/12 10:52:44;;;;;;;6.78;1.30;;;;;;;9.83;52.04;100984.25;5011663;28;20084;-74
2022/02/12 10:55:40;;;;;;;3.90;1.25;;;;;;;10.34;51.05;100976.06;5005470;28;20022;-77
2022/02/12 10:58:11;;;;;;;3.65;1.80;;;;;;;10.75;49.42;100973.94;5004415;28;20025;-74
2022/02/12 11:00:38;;;;;;;2.25;0.75;;;;;;;11.17;48.62;100968.69;5005959;28;20033;-73
2022/02/12 11:03:09;;;;;;;5.20;1.23;;;;;;;11.22;48.10;100967.91;5003360;28;20480;-75
2022/02/12 11:05:36;;;;;;;3.35;1.33;;;;;;;10.97;47.94;100955.59;5003497;28;20037;-75
2022/02/12 11:08:04;;;;;;;5.75;2.15;;;;;;;10.69;48.59;100969.44;4987702;28;20034;-72
2022/02/12 11:10:29;;;;;;;8.05;1.75;;;;;;;10.44;49.06;100973.47;4992044;28;20025;-75
2022/02/12 11:12:57;;;;;;;5.03;1.60;;;;;;;10.24;49.73;100952.94;4993295;28;20030;-74
2022/02/12 11:15:23;;;;;;;2.72;1.17;;;;;;;10.20;50.08;100957.25;5006566;28;20511;-74
2022/02/12 11:17:49;;;;;;;2.38;1.00;;;;;;;10.17;50.52;100946.84;4982902;28;20033;-74
2022/02/12 11:20:15;;;;;;;6.85;1.40;;;;;;;10.28;50.87;100951.38;4986468;28;20121;-74
2022/02/12 11:22:42;;;;;;;6.88;0.95;;;;;;;10.42;50.51;100931.91;5008759;28;20123;-72
2022/02/12 11:25:34;;;;;;;12.25;1.10;;;;;;;10.41;49.64;100935.72;5008134;28;20061;-73
2022/02/12 11:28:11;;;;;;;9.30;1.33;;;;;;;10.76;49.04;100927.16;5005416;28;20464;-74
2022/02/12 11:30:38;;;;;;;2.05;1.10;;;;;;;11.30;49.15;100926.38;5003221;28;20022;-75
2022/02/12 11:33:19;;;;;;;6.72;0.85;;;;;;;12.08;46.76;100907.88;5010347;28;20029;-74
2022/02/12 11:36:10;;;;;;;2.15;1.10;;;;;;;13.64;45.26;100906.22;5004189;28;20049;-74
2022/02/12 11:38:38;;;;;;;2.97;0.73;;;;;;;14.76;41.36;100903.50;4980554;28;20029;-74